Leandra — V2EB4 — position and weather

sailwx.info

Track history (hours):
 
Tides and Currents Weather Stations Pressure Air Temp Water Temp Dewpoint Dewpoint Depression Visibility Wind Speed Wind Dir Waves Ship Positions

Leandra

Last reported at 2014-Oct-21 19:33 UTC. Time now 2014-Oct-21 19:58 UTC.
Position N 41°25' E 029°03'.

Length 146 m; draft 5.7 m.

Type: Cargo ship. MMSI: 305375000.

Date/timePositionNaut miles runAvg speedWind from/ knotsBaromVisibWave heightAir tempDewpointWater temp
2014-Oct-21 19:33N 41°25' E 029°03'1 0.7
2014-Oct-21 18:33N 41°24' E 029°03'1 0.6
2014-Oct-21 17:33N 41°24' E 029°03'0 0.5
2014-Oct-21 16:33N 41°23' E 029°03'0 0.3
2014-Oct-21 15:33N 41°23' E 029°03'0 0.1
2014-Oct-21 14:33N 41°23' E 029°03'  
2014-Oct-18 12:33N 41°20' E 029°13'20 8.6
2014-Oct-18 10:10N 41°02' E 029°00'5 7.6
2014-Oct-18 09:33N 40°57' E 028°59'9 8.8
2014-Oct-18 08:34N 40°51' E 028°51'5 4.8
2014-Oct-18 07:30N 40°46' E 028°49'4 3.6
2014-Oct-18 06:32N 40°47' E 028°53'95 4.7
2014-Oct-17 10:14N 40°28' E 026°51'55 9.6
2014-Oct-17 04:28N 39°53' E 025°55'7910.8
2014-Oct-16 21:10N 38°34' E 025°46'1111.4
2014-Oct-16 20:14N 38°24' E 025°46'811.9
2014-Oct-16 19:33N 38°16' E 025°46'1311.5
2014-Oct-16 18:27N 38°03' E 025°49'1212.8
2014-Oct-16 17:31N 37°51' E 025°51'1211.1
2014-Oct-16 16:26N 37°40' E 025°53'8 9.5
2014-Oct-16 15:34N 37°31' E 025°55'1110.9
2014-Oct-16 14:33N 37°21' E 025°60'1110.9
2014-Oct-16 13:34N 37°11' E 026°05'1010.2
2014-Oct-16 12:34N 37°02' E 026°10'1010.1
2014-Oct-16 11:33N 36°53' E 026°17'1110.9
2014-Oct-16 10:34N 36°45' E 026°25'1111.2
2014-Oct-16 09:33N 36°35' E 026°33'1111.3
2014-Oct-16 08:34N 36°24' E 026°33'1111.0
2014-Oct-16 07:33N 36°13' E 026°33'1111.2
2014-Oct-16 06:33N 36°02' E 026°33'1111.3
2014-Oct-16 05:33N 35°50' E 026°33'1111.0
2014-Oct-16 04:33N 35°39' E 026°33'1111.0
2014-Oct-16 03:33N 35°28' E 026°33'1110.8
2014-Oct-16 02:33N 35°18' E 026°33'1010.5
2014-Oct-16 01:34N 35°08' E 026°28'  
Track history (hours):
 
Tides and Currents Weather Stations Pressure Air Temp Water Temp Dewpoint Dewpoint Depression Visibility Wind Speed Wind Dir Waves Ship Positions

Leandra

Last reported at 2014-Oct-21 19:33 UTC. Time now 2014-Oct-21 19:58 UTC.
Position N 41°25' E 029°03'.

Length 146 m; draft 5.7 m.

Type: Cargo ship. MMSI: 305375000.

Date/timePositionNaut miles runAvg speedWind from/ knotsBaromVisibWave heightAir tempDewpointWater temp
2014-Oct-21 19:33N 41°25' E 029°03'1 0.7
2014-Oct-21 18:33N 41°24' E 029°03'1 0.6
2014-Oct-21 17:33N 41°24' E 029°03'0 0.5
2014-Oct-21 16:33N 41°23' E 029°03'0 0.3
2014-Oct-21 15:33N 41°23' E 029°03'0 0.1
2014-Oct-21 14:33N 41°23' E 029°03'  
2014-Oct-18 12:33N 41°20' E 029°13'20 8.6
2014-Oct-18 10:10N 41°02' E 029°00'5 7.6
2014-Oct-18 09:33N 40°57' E 028°59'9 8.8
2014-Oct-18 08:34N 40°51' E 028°51'5 4.8
2014-Oct-18 07:30N 40°46' E 028°49'4 3.6
2014-Oct-18 06:32N 40°47' E 028°53'95 4.7
2014-Oct-17 10:14N 40°28' E 026°51'55 9.6
2014-Oct-17 04:28N 39°53' E 025°55'7910.8
2014-Oct-16 21:10N 38°34' E 025°46'1111.4
2014-Oct-16 20:14N 38°24' E 025°46'811.9
2014-Oct-16 19:33N 38°16' E 025°46'1311.5
2014-Oct-16 18:27N 38°03' E 025°49'1212.8
2014-Oct-16 17:31N 37°51' E 025°51'1211.1
2014-Oct-16 16:26N 37°40' E 025°53'8 9.5
2014-Oct-16 15:34N 37°31' E 025°55'1110.9
2014-Oct-16 14:33N 37°21' E 025°60'1110.9
2014-Oct-16 13:34N 37°11' E 026°05'1010.2
2014-Oct-16 12:34N 37°02' E 026°10'1010.1
2014-Oct-16 11:33N 36°53' E 026°17'1110.9
2014-Oct-16 10:34N 36°45' E 026°25'1111.2
2014-Oct-16 09:33N 36°35' E 026°33'1111.3
2014-Oct-16 08:34N 36°24' E 026°33'1111.0
2014-Oct-16 07:33N 36°13' E 026°33'1111.2
2014-Oct-16 06:33N 36°02' E 026°33'1111.3
2014-Oct-16 05:33N 35°50' E 026°33'1111.0
2014-Oct-16 04:33N 35°39' E 026°33'1111.0
2014-Oct-16 03:33N 35°28' E 026°33'1110.8
2014-Oct-16 02:33N 35°18' E 026°33'1010.5
2014-Oct-16 01:34N 35°08' E 026°28'  

Dump ship's entire track history